createdAt,value
2018-06-14T00:02:26.298Z,3.77
2018-06-14T00:04:55.145Z,3.43
2018-06-14T00:07:23.717Z,3.23
2018-06-14T00:09:52.433Z,3.60
2018-06-14T00:12:20.944Z,3.07
2018-06-14T00:14:49.562Z,3.57
2018-06-14T00:17:18.160Z,3.47
2018-06-14T00:19:46.634Z,3.30
2018-06-14T00:22:15.180Z,3.70
2018-06-14T00:24:43.908Z,3.60
2018-06-14T00:27:12.787Z,3.30
2018-06-14T00:29:41.243Z,3.30
2018-06-14T00:32:09.719Z,3.70
2018-06-14T00:34:38.537Z,3.87
2018-06-14T00:37:07.415Z,3.50
2018-06-14T00:39:36.533Z,3.60
2018-06-14T00:42:05.024Z,3.77
2018-06-14T00:44:33.799Z,3.57
2018-06-14T00:47:02.599Z,3.37
2018-06-14T00:49:31.136Z,3.30
2018-06-14T00:51:59.696Z,3.23
2018-06-14T00:54:28.143Z,2.90
2018-06-14T00:57:07.837Z,3.43
2018-06-14T00:59:36.447Z,3.33
2018-06-14T01:02:04.967Z,2.90
2018-06-14T01:04:33.451Z,3.60
2018-06-14T01:07:02.330Z,3.10
2018-06-14T01:09:31.029Z,3.03
2018-06-14T01:11:59.623Z,2.83
2018-06-14T01:14:28.111Z,3.67
2018-06-14T01:16:56.714Z,3.60
2018-06-14T01:19:25.299Z,3.13
2018-06-14T01:21:53.818Z,3.20
2018-06-14T01:24:22.492Z,3.20
2018-06-14T01:26:53.511Z,3.30
2018-06-14T01:29:22.189Z,3.30
2018-06-14T01:31:50.791Z,3.00
2018-06-14T01:34:19.690Z,3.20
2018-06-14T01:36:48.495Z,3.53
2018-06-14T01:39:17.154Z,3.93
2018-06-14T01:41:45.960Z,3.57
2018-06-14T01:44:14.372Z,3.37
2018-06-14T01:46:43.317Z,3.40
2018-06-14T01:49:11.851Z,4.07
2018-06-14T01:51:40.316Z,3.40
2018-06-14T01:54:08.851Z,3.40
2018-06-14T01:56:37.374Z,3.90
2018-06-14T01:59:05.916Z,3.90
2018-06-14T02:01:34.447Z,3.53
2018-06-14T02:04:03.236Z,3.53
2018-06-14T02:06:32.010Z,3.80
2018-06-14T02:09:00.953Z,4.17
2018-06-14T02:11:29.453Z,3.30
2018-06-14T02:13:57.948Z,3.30
2018-06-14T02:16:26.590Z,3.63
2018-06-14T02:18:55.280Z,3.43
2018-06-14T02:21:24.114Z,3.73
2018-06-14T02:23:52.674Z,3.90
2018-06-14T02:26:21.148Z,3.33
2018-06-14T02:28:49.632Z,3.60
2018-06-14T02:31:18.456Z,3.93
2018-06-14T02:33:47.282Z,3.80
2018-06-14T02:36:16.151Z,3.50
2018-06-14T02:38:44.727Z,3.60
2018-06-14T02:41:13.281Z,3.67
2018-06-14T02:43:41.876Z,3.83
2018-06-14T02:46:10.491Z,3.70
2018-06-14T02:48:38.980Z,3.67
2018-06-14T02:51:07.675Z,3.53
2018-06-14T02:53:36.187Z,3.77
2018-06-14T02:56:04.714Z,4.03
2018-06-14T02:58:33.248Z,3.80
2018-06-14T03:01:01.773Z,4.47
2018-06-14T03:03:30.276Z,4.07
2018-06-14T03:05:58.796Z,4.03
2018-06-14T03:08:27.351Z,3.37
2018-06-14T03:10:55.828Z,3.90
2018-06-14T03:13:24.450Z,3.77
2018-06-14T03:15:52.957Z,4.10
2018-06-14T03:18:21.801Z,3.60
2018-06-14T03:20:50.472Z,3.10
2018-06-14T03:23:18.937Z,3.47
2018-06-14T03:25:47.511Z,3.60
2018-06-14T03:28:16.365Z,3.77
2018-06-14T03:30:45.087Z,3.50
2018-06-14T03:33:13.656Z,3.40
2018-06-14T03:35:42.154Z,3.77
2018-06-14T03:38:10.680Z,3.90
2018-06-14T03:40:39.191Z,3.80
2018-06-14T03:43:07.925Z,4.20
2018-06-14T03:45:36.472Z,3.70
2018-06-14T03:48:05.012Z,3.73
2018-06-14T03:50:33.625Z,4.10
2018-06-14T03:53:02.371Z,3.60
2018-06-14T03:55:31.064Z,3.60
2018-06-14T03:57:59.798Z,3.57
2018-06-14T04:00:28.493Z,3.43
2018-06-14T04:02:57.296Z,3.30
2018-06-14T04:05:25.838Z,3.37
2018-06-14T04:07:54.584Z,2.93
2018-06-14T04:10:23.152Z,3.40
2018-06-14T04:12:51.627Z,3.80
2018-06-14T04:15:20.119Z,3.87
2018-06-14T04:17:53.081Z,4.13
2018-06-14T04:20:21.607Z,3.93
2018-06-14T04:22:50.050Z,3.80
2018-06-14T04:25:18.763Z,3.70
2018-06-14T04:27:47.285Z,3.40
2018-06-14T04:30:16.011Z,3.40
2018-06-14T04:32:44.568Z,3.73
2018-06-14T04:35:13.060Z,4.17
2018-06-14T04:37:48.020Z,3.83
2018-06-14T04:40:16.619Z,4.33
2018-06-14T04:42:45.313Z,4.00
2018-06-14T04:45:13.800Z,3.50
2018-06-14T04:47:42.343Z,3.60
2018-06-14T04:50:11.017Z,4.00
2018-06-14T04:52:39.561Z,3.73
2018-06-14T04:55:08.162Z,3.80
2018-06-14T04:57:36.692Z,3.70
2018-06-14T05:00:08.568Z,3.63
2018-06-14T05:02:37.247Z,3.80
2018-06-14T05:05:06.387Z,4.03
2018-06-14T05:07:34.896Z,3.80
2018-06-14T05:10:03.462Z,3.70
2018-06-14T05:12:31.959Z,3.80
2018-06-14T05:15:00.495Z,4.10
2018-06-14T05:17:29.392Z,3.37
2018-06-14T05:19:58.064Z,4.10
2018-06-14T05:22:26.602Z,3.50
2018-06-14T05:24:55.158Z,3.90
2018-06-14T05:27:23.676Z,3.77
2018-06-14T05:29:52.507Z,3.73
2018-06-14T05:32:21.060Z,3.83
2018-06-14T05:34:49.671Z,4.70
2018-06-14T05:37:18.476Z,4.07
2018-06-14T05:39:46.989Z,4.17
2018-06-14T05:42:15.538Z,4.50
2018-06-14T05:44:44.045Z,4.27
2018-06-14T05:47:12.995Z,4.33
2018-06-14T05:49:41.660Z,4.23
2018-06-14T05:52:10.180Z,3.70
2018-06-14T05:54:39.206Z,4.40
2018-06-14T05:57:07.775Z,4.17
2018-06-14T05:59:36.299Z,4.20
2018-06-14T06:02:04.834Z,4.57
2018-06-14T06:04:33.506Z,4.80
2018-06-14T06:07:02.101Z,4.40
2018-06-14T06:09:31.080Z,3.97
2018-06-14T06:11:59.583Z,4.17
2018-06-14T06:14:28.230Z,3.70
2018-06-14T06:16:56.725Z,3.80
2018-06-14T06:19:25.718Z,4.10
2018-06-14T06:21:54.590Z,3.93
2018-06-14T06:24:23.219Z,3.90
2018-06-14T06:26:51.759Z,4.43
2018-06-14T06:29:20.247Z,3.73
2018-06-14T06:31:49.001Z,3.83
2018-06-14T06:34:17.731Z,4.20
2018-06-14T06:36:46.573Z,3.37
2018-06-14T06:39:15.125Z,4.10
2018-06-14T06:41:43.745Z,3.67
2018-06-14T06:44:12.281Z,3.80
2018-06-14T06:46:40.831Z,3.90
2018-06-14T06:49:09.543Z,3.93
2018-06-14T06:51:38.430Z,3.20
2018-06-14T06:54:07.064Z,3.43
2018-06-14T06:56:35.866Z,3.53
2018-06-14T06:59:04.514Z,4.20
2018-06-14T07:01:33.286Z,3.97
2018-06-14T07:04:01.816Z,3.50
2018-06-14T07:06:30.481Z,3.90
2018-06-14T07:08:59.031Z,3.70
2018-06-14T07:11:27.615Z,3.27
2018-06-14T07:13:56.068Z,3.40
2018-06-14T07:16:24.961Z,3.50
2018-06-14T07:18:53.764Z,3.30
2018-06-14T07:21:22.648Z,2.93
2018-06-14T07:23:51.145Z,3.50
2018-06-14T07:26:19.673Z,2.70
2018-06-14T07:28:48.214Z,3.20
2018-06-14T07:31:16.836Z,2.50
2018-06-14T07:33:45.473Z,2.80
2018-06-14T07:36:14.288Z,2.93
2018-06-14T07:38:42.819Z,2.40
2018-06-14T07:41:11.442Z,2.73
2018-06-14T07:43:41.389Z,2.80
2018-06-14T07:46:09.959Z,2.73
2018-06-14T07:48:39.936Z,3.07
2018-06-14T07:51:08.781Z,2.77
2018-06-14T07:53:37.925Z,2.70
2018-06-14T07:56:06.790Z,2.57
2018-06-14T07:58:35.151Z,2.80
2018-06-14T08:01:03.813Z,2.70
2018-06-14T08:03:32.744Z,2.30
2018-06-14T08:06:01.406Z,2.47
2018-06-14T08:08:30.399Z,2.27
2018-06-14T08:10:58.980Z,1.97
2018-06-14T08:13:27.527Z,2.20
2018-06-14T08:15:56.207Z,2.27
2018-06-14T08:18:25.010Z,2.23
2018-06-14T08:20:53.603Z,2.23
2018-06-14T08:23:24.963Z,2.80
2018-06-14T08:25:53.446Z,2.73
2018-06-14T08:28:22.042Z,2.57
2018-06-14T08:30:50.332Z,2.27
2018-06-14T08:33:19.047Z,2.73
2018-06-14T08:35:47.568Z,2.60
2018-06-14T08:38:16.173Z,2.43
2018-06-14T08:40:44.992Z,2.70
2018-06-14T08:43:13.756Z,2.10
2018-06-14T08:45:42.499Z,2.73
2018-06-14T08:48:11.390Z,2.73
2018-06-14T08:50:39.900Z,2.27
2018-06-14T08:53:08.442Z,2.20
2018-06-14T08:55:37.037Z,2.33
2018-06-14T08:58:06.026Z,2.13
2018-06-14T09:00:34.932Z,2.30
2018-06-14T09:03:03.691Z,2.33
2018-06-14T09:05:32.262Z,2.57
2018-06-14T09:08:01.051Z,2.13
2018-06-14T09:10:29.881Z,2.60
2018-06-14T09:12:58.696Z,1.97
2018-06-14T09:15:27.241Z,2.10
2018-06-14T09:17:56.041Z,2.70
2018-06-14T09:20:24.566Z,2.17
2018-06-14T09:22:53.232Z,2.37
2018-06-14T09:25:22.061Z,2.60
2018-06-14T09:27:50.674Z,2.00
2018-06-14T09:30:21.460Z,2.30
2018-06-14T09:32:51.736Z,2.43
2018-06-14T09:35:21.490Z,2.33
2018-06-14T09:37:51.565Z,2.30
2018-06-14T09:40:21.409Z,2.33
2018-06-14T09:42:52.506Z,2.60
2018-06-14T09:45:21.367Z,2.43
2018-06-14T09:47:49.950Z,2.60
2018-06-14T09:50:18.451Z,2.27
2018-06-14T09:52:47.342Z,2.00
2018-06-14T09:55:16.687Z,1.90
2018-06-14T09:57:45.335Z,1.97
2018-06-14T10:00:14.056Z,2.13
2018-06-14T10:02:42.973Z,2.33
2018-06-14T10:05:11.885Z,2.10
2018-06-14T10:07:40.670Z,2.67
2018-06-14T10:10:09.230Z,2.17
2018-06-14T10:12:38.842Z,2.20
2018-06-14T10:15:07.545Z,2.20
2018-06-14T10:17:36.285Z,2.10
2018-06-14T10:20:05.043Z,2.00
2018-06-14T10:22:33.769Z,2.23
2018-06-14T10:25:02.452Z,2.20
2018-06-14T10:27:30.964Z,1.83
2018-06-14T10:29:59.543Z,2.23
2018-06-14T10:32:28.239Z,2.30
2018-06-14T10:34:57.133Z,2.80
2018-06-14T10:37:25.778Z,2.77
2018-06-14T10:39:54.150Z,2.80
2018-06-14T10:42:22.690Z,2.43
2018-06-14T10:44:51.416Z,2.77
2018-06-14T10:47:20.160Z,2.17
2018-06-14T10:49:48.901Z,2.70
2018-06-14T10:52:17.560Z,2.40
2018-06-14T10:54:46.048Z,2.58
2018-06-14T10:57:14.817Z,3.05
2018-06-14T10:59:43.283Z,3.77
2018-06-14T11:02:11.936Z,2.85
2018-06-14T11:04:40.411Z,3.10
2018-06-14T11:07:09.033Z,3.70
2018-06-14T11:09:37.546Z,3.70
2018-06-14T11:12:06.396Z,3.40
2018-06-14T11:14:34.927Z,3.13
2018-06-14T11:17:03.568Z,3.33
2018-06-14T11:19:32.206Z,3.92
2018-06-14T11:22:01.098Z,3.00
2018-06-14T11:24:29.707Z,3.65
2018-06-14T11:26:58.241Z,4.20
2018-06-14T11:29:26.783Z,3.17
2018-06-14T11:31:55.343Z,3.50
2018-06-14T11:34:24.130Z,2.70
2018-06-14T11:36:52.833Z,3.90
2018-06-14T11:39:21.366Z,3.60
2018-06-14T11:41:49.952Z,3.47
2018-06-14T11:44:18.669Z,3.30
2018-06-14T11:46:47.408Z,4.40
2018-06-14T11:49:15.935Z,3.33
2018-06-14T11:51:44.475Z,3.83
2018-06-14T11:54:13.196Z,3.90
2018-06-14T11:56:41.776Z,3.05
2018-06-14T11:59:10.403Z,3.37
2018-06-14T12:01:39.615Z,3.15
2018-06-14T12:04:08.382Z,3.20
2018-06-14T12:06:37.155Z,3.10
2018-06-14T12:09:07.670Z,3.08
2018-06-14T12:11:36.269Z,2.90
2018-06-14T12:14:04.883Z,3.30
2018-06-14T12:16:33.848Z,3.40
2018-06-14T12:19:02.499Z,2.90
2018-06-14T12:21:31.327Z,3.62
2018-06-14T12:23:59.902Z,3.17
2018-06-14T12:26:28.874Z,2.90
2018-06-14T12:28:57.474Z,2.77
2018-06-14T12:31:26.159Z,2.85
2018-06-14T12:33:54.910Z,3.02
2018-06-14T12:36:23.533Z,3.05
2018-06-14T12:38:52.464Z,3.30
2018-06-14T12:41:21.100Z,3.45
2018-06-14T12:43:49.603Z,3.30
2018-06-14T12:46:18.305Z,3.10
2018-06-14T12:48:47.241Z,2.95
2018-06-14T12:51:15.756Z,3.55
2018-06-14T12:53:44.281Z,3.55
2018-06-14T12:56:13.047Z,3.40
2018-06-14T12:58:41.936Z,3.60
2018-06-14T13:01:10.613Z,3.72
2018-06-14T13:03:39.604Z,3.70
2018-06-14T13:06:08.724Z,3.90
2018-06-14T13:08:37.284Z,4.08
2018-06-14T13:11:06.003Z,3.37
2018-06-14T13:13:34.600Z,3.40
2018-06-14T13:16:03.104Z,3.17
2018-06-14T13:18:32.021Z,3.60
2018-06-14T13:21:05.495Z,3.20
2018-06-14T13:23:34.037Z,3.05
2018-06-14T13:26:02.860Z,2.37
2018-06-14T13:28:31.415Z,3.15
2018-06-14T13:31:00.123Z,3.22
2018-06-14T13:33:29.248Z,3.30
2018-06-14T13:35:59.384Z,3.12
2018-06-14T13:38:27.902Z,2.83
2018-06-14T13:40:56.597Z,2.45
2018-06-14T13:43:25.142Z,2.17
2018-06-14T13:45:53.689Z,2.00
2018-06-14T13:48:22.625Z,3.17
2018-06-14T13:50:51.316Z,2.35
2018-06-14T13:53:19.949Z,2.87
2018-06-14T13:55:48.713Z,2.50
2018-06-14T13:58:17.276Z,2.47
2018-06-14T14:00:46.022Z,2.58
2018-06-14T14:03:14.477Z,2.37
2018-06-14T14:05:43.026Z,2.10
2018-06-14T14:08:11.589Z,1.90
2018-06-14T14:10:40.093Z,2.10
2018-06-14T14:13:08.719Z,2.47
2018-06-14T14:15:37.730Z,1.90
2018-06-14T14:18:06.408Z,1.80
2018-06-14T14:20:35.118Z,2.27
2018-06-14T14:23:03.721Z,2.20
2018-06-14T14:25:32.440Z,2.10
2018-06-14T14:28:01.085Z,1.90
2018-06-14T14:30:29.729Z,1.92
2018-06-14T14:32:58.361Z,2.10
2018-06-14T14:35:26.874Z,2.10
2018-06-14T14:37:55.517Z,2.20
2018-06-14T14:40:24.320Z,2.25
2018-06-14T14:42:52.923Z,2.00
2018-06-14T14:45:21.676Z,1.82
2018-06-14T14:47:50.215Z,2.00
2018-06-14T14:50:18.900Z,2.00
2018-06-14T14:52:47.725Z,2.00
2018-06-14T14:55:16.595Z,2.00
2018-06-14T14:57:45.559Z,2.27
2018-06-14T15:00:14.446Z,2.40
2018-06-14T15:02:43.313Z,2.27
2018-06-14T15:05:11.895Z,2.25
2018-06-14T15:07:40.473Z,1.90
2018-06-14T15:10:09.695Z,2.27
2018-06-14T15:12:38.252Z,2.35
2018-06-14T15:15:07.249Z,1.90
2018-06-14T15:17:36.026Z,2.40
2018-06-14T15:20:04.834Z,1.95
2018-06-14T15:22:33.023Z,2.02
2018-06-14T15:25:01.708Z,1.82
2018-06-14T15:27:30.672Z,1.90
2018-06-14T15:29:59.325Z,2.77
2018-06-14T15:32:27.904Z,2.30
2018-06-14T15:34:56.498Z,2.07
2018-06-14T15:37:25.137Z,2.37
2018-06-14T15:39:53.828Z,2.13
2018-06-14T15:42:22.371Z,2.40
2018-06-14T15:44:51.468Z,2.17
2018-06-14T15:47:20.214Z,2.30
2018-06-14T15:49:49.231Z,2.17
2018-06-14T15:52:17.861Z,2.20
2018-06-14T15:54:56.700Z,2.57
2018-06-14T15:57:25.273Z,2.23
2018-06-14T15:59:54.069Z,2.23
2018-06-14T16:02:23.152Z,2.33
2018-06-14T16:04:52.355Z,2.33
2018-06-14T16:07:21.247Z,2.07
2018-06-14T16:09:49.956Z,2.20
2018-06-14T16:12:18.779Z,2.43
2018-06-14T16:14:47.941Z,2.37
2018-06-14T16:17:16.557Z,2.30
2018-06-14T16:19:45.490Z,2.60
2018-06-14T16:22:14.063Z,2.40
2018-06-14T16:24:42.677Z,2.20
2018-06-14T16:27:11.316Z,2.47
2018-06-14T16:29:39.958Z,2.33
2018-06-14T16:32:08.931Z,2.20
2018-06-14T16:34:38.046Z,2.00
2018-06-14T16:37:07.140Z,2.13
2018-06-14T16:39:35.671Z,2.43
2018-06-14T16:42:03.897Z,2.43
2018-06-14T16:44:33.121Z,2.30
2018-06-14T16:47:01.996Z,2.70
2018-06-14T16:49:30.794Z,2.80
2018-06-14T16:51:59.430Z,3.00
2018-06-14T16:54:28.237Z,2.90
2018-06-14T16:56:56.930Z,2.90
2018-06-14T16:59:25.625Z,3.17
2018-06-14T17:01:54.161Z,3.20
2018-06-14T17:04:23.096Z,2.77
2018-06-14T17:06:52.077Z,2.80
2018-06-14T17:09:20.818Z,2.43
2018-06-14T17:11:49.545Z,3.07
2018-06-14T17:14:18.360Z,2.60
2018-06-14T17:16:47.176Z,2.93
2018-06-14T17:19:15.910Z,3.27
2018-06-14T17:21:44.644Z,3.27
2018-06-14T17:24:13.550Z,3.53
2018-06-14T17:26:42.946Z,3.67
2018-06-14T17:29:11.227Z,3.70
2018-06-14T17:31:40.160Z,4.37
2018-06-14T17:34:08.877Z,4.20
2018-06-14T17:36:37.634Z,4.83
2018-06-14T17:39:07.367Z,4.97
2018-06-14T17:41:36.749Z,5.43
2018-06-14T17:44:05.304Z,6.27
2018-06-14T17:46:34.042Z,5.60
2018-06-14T17:49:02.870Z,5.73
2018-06-14T17:51:31.684Z,6.57
2018-06-14T17:54:00.537Z,6.40
2018-06-14T17:56:29.217Z,7.10
2018-06-14T17:58:57.972Z,7.17
2018-06-14T18:01:27.093Z,7.23
2018-06-14T18:03:55.845Z,9.43
2018-06-14T18:06:25.485Z,7.47
2018-06-14T18:08:54.320Z,7.97
2018-06-14T18:11:23.627Z,7.30
2018-06-14T18:13:52.618Z,7.30
2018-06-14T18:16:21.248Z,8.47
2018-06-14T18:18:49.958Z,8.20
2018-06-14T18:21:18.678Z,8.90
2018-06-14T18:23:47.922Z,10.53
2018-06-14T18:26:16.665Z,12.40
2018-06-14T18:28:45.450Z,12.17
2018-06-14T18:31:14.313Z,11.37
2018-06-14T18:33:43.507Z,11.20
2018-06-14T18:36:12.055Z,11.20
2018-06-14T18:38:40.883Z,13.13
2018-06-14T18:41:09.833Z,14.00
2018-06-14T18:43:38.756Z,12.97
2018-06-14T18:46:07.575Z,15.57
2018-06-14T18:48:36.236Z,14.23
2018-06-14T18:51:05.058Z,14.30
2018-06-14T18:53:33.696Z,13.37
2018-06-14T18:56:02.532Z,13.87
2018-06-14T18:58:31.309Z,14.37
2018-06-14T19:01:00.314Z,13.10
2018-06-14T19:03:29.263Z,13.20
2018-06-14T19:05:57.695Z,13.60
2018-06-14T19:08:26.849Z,13.90
2018-06-14T19:10:55.566Z,14.03
2018-06-14T19:13:24.384Z,15.67
2018-06-14T19:15:53.237Z,15.87
2018-06-14T19:18:22.127Z,15.73
2018-06-14T19:20:51.276Z,12.83
2018-06-14T19:23:20.122Z,11.97
2018-06-14T19:25:49.212Z,11.67
2018-06-14T19:28:18.875Z,12.20
2018-06-14T19:30:48.584Z,12.33
2018-06-14T19:33:17.912Z,13.00
2018-06-14T19:35:46.942Z,12.40
2018-06-14T19:38:16.231Z,12.00
2018-06-14T19:40:44.811Z,12.47
2018-06-14T19:43:13.636Z,12.80
2018-06-14T19:45:42.668Z,11.40
2018-06-14T19:48:11.491Z,12.40
2018-06-14T19:50:40.891Z,10.73
2018-06-14T19:53:09.816Z,13.63
2018-06-14T19:55:38.752Z,11.93
2018-06-14T19:58:07.336Z,12.53
2018-06-14T20:00:36.259Z,13.30
2018-06-14T20:03:05.235Z,12.23
2018-06-14T20:05:33.981Z,13.40
2018-06-14T20:08:02.610Z,14.50
2018-06-14T20:10:31.412Z,14.03
2018-06-14T20:13:00.234Z,13.47
2018-06-14T20:15:28.424Z,15.03
2018-06-14T20:17:57.157Z,14.73
2018-06-14T20:20:25.886Z,13.17
2018-06-14T20:22:54.277Z,14.23
2018-06-14T20:25:23.543Z,15.63
2018-06-14T20:27:52.829Z,15.00
2018-06-14T20:30:21.644Z,13.90
2018-06-14T20:32:50.060Z,15.83
2018-06-14T20:35:18.598Z,13.80
2018-06-14T20:37:47.378Z,14.93
2018-06-14T20:40:16.095Z,12.40
2018-06-14T20:42:44.950Z,13.17
2018-06-14T20:45:13.684Z,12.90
2018-06-14T20:47:42.402Z,12.93
2018-06-14T20:50:11.448Z,12.00
2018-06-14T20:52:40.118Z,13.20
2018-06-14T20:55:09.331Z,13.37
2018-06-14T20:57:38.245Z,14.50
2018-06-14T21:00:06.835Z,13.93
2018-06-14T21:02:35.755Z,14.13
2018-06-14T21:05:04.469Z,12.50
2018-06-14T21:07:33.145Z,12.30
2018-06-14T21:10:01.910Z,12.07
2018-06-14T21:12:30.949Z,12.53
2018-06-14T21:14:59.505Z,12.23
2018-06-14T21:17:28.283Z,12.97
2018-06-14T21:19:57.097Z,12.07
2018-06-14T21:22:25.707Z,14.83
2018-06-14T21:24:54.718Z,15.27
2018-06-14T21:27:23.558Z,15.60
2018-06-14T21:29:52.361Z,13.30
2018-06-14T21:32:21.088Z,13.53
2018-06-14T21:34:49.697Z,13.43
2018-06-14T21:37:18.250Z,13.50
2018-06-14T21:39:46.772Z,18.47
2018-06-14T21:42:15.436Z,18.57
2018-06-14T21:44:44.000Z,16.60
2018-06-14T21:47:12.568Z,15.93
2018-06-14T21:49:41.482Z,14.77
2018-06-14T21:52:10.100Z,13.63
2018-06-14T21:54:38.931Z,15.57
2018-06-14T21:57:07.456Z,16.67
2018-06-14T21:59:36.487Z,16.93
2018-06-14T22:02:05.042Z,14.47
2018-06-14T22:04:33.835Z,13.70
2018-06-14T22:07:02.468Z,14.23
2018-06-14T22:09:31.467Z,14.97
2018-06-14T22:12:00.101Z,14.63
2018-06-14T22:14:28.651Z,15.07
2018-06-14T22:16:57.252Z,14.17
2018-06-14T22:19:25.973Z,14.00
2018-06-14T22:21:54.739Z,14.07
2018-06-14T22:24:23.435Z,13.30
2018-06-14T22:26:51.848Z,12.73
2018-06-14T22:29:20.431Z,13.30
2018-06-14T22:31:49.410Z,12.43
2018-06-14T22:34:29.028Z,13.73
2018-06-14T22:36:58.012Z,12.27
2018-06-14T22:39:26.570Z,12.87
2018-06-14T22:41:55.129Z,13.20
2018-06-14T22:44:23.773Z,13.30
2018-06-14T22:46:52.307Z,14.17
2018-06-14T22:49:20.827Z,15.20
2018-06-14T22:52:00.537Z,14.37
2018-06-14T22:54:29.126Z,13.70
2018-06-14T22:56:57.627Z,12.67
2018-06-14T22:59:26.751Z,13.00
2018-06-14T23:01:55.315Z,13.23
2018-06-14T23:04:26.368Z,12.53
2018-06-14T23:06:55.080Z,13.63
2018-06-14T23:10:34.628Z,13.67
2018-06-14T23:13:03.731Z,14.17
2018-06-14T23:15:32.253Z,14.93
2018-06-14T23:18:01.195Z,14.10
2018-06-14T23:20:31.005Z,12.03
2018-06-14T23:23:00.277Z,10.93
2018-06-14T23:25:29.266Z,13.67
2018-06-14T23:27:58.099Z,13.17
2018-06-14T23:30:26.749Z,12.47
2018-06-14T23:32:55.286Z,11.40
2018-06-14T23:35:24.089Z,11.20
2018-06-14T23:37:52.834Z,10.87
2018-06-14T23:40:21.614Z,11.17
2018-06-14T23:42:50.322Z,10.53
2018-06-14T23:45:18.851Z,11.93
2018-06-14T23:47:47.550Z,11.47
2018-06-14T23:50:16.223Z,10.57
2018-06-14T23:52:44.795Z,9.33
2018-06-14T23:55:13.300Z,10.50
2018-06-14T23:57:41.823Z,10.30
